sensor_id;sensor_type;location;lat;lon;timestamp;P1;durP1;ratioP1;P2;durP2;ratioP2
45806;SDS011;31507;51.494;7.518;2023-05-10T00:02:02;10.77;;;6.15;;
45806;SDS011;31507;51.494;7.518;2023-05-10T00:04:28;11.32;;;5.95;;
45806;SDS011;31507;51.494;7.518;2023-05-10T00:06:54;9.75;;;6.03;;
45806;SDS011;31507;51.494;7.518;2023-05-10T00:09:20;9.02;;;5.57;;
45806;SDS011;31507;51.494;7.518;2023-05-10T00:11:45;8.77;;;6.40;;
45806;SDS011;31507;51.494;7.518;2023-05-10T00:14:11;12.05;;;6.20;;
45806;SDS011;31507;51.494;7.518;2023-05-10T00:16:37;12.75;;;6.90;;
45806;SDS011;31507;51.494;7.518;2023-05-10T00:19:02;9.10;;;5.63;;
45806;SDS011;31507;51.494;7.518;2023-05-10T00:21:28;9.98;;;6.20;;
45806;SDS011;31507;51.494;7.518;2023-05-10T00:23:54;10.25;;;6.65;;
45806;SDS011;31507;51.494;7.518;2023-05-10T00:26:19;10.10;;;6.45;;
45806;SDS011;31507;51.494;7.518;2023-05-10T00:28:45;11.10;;;7.47;;
45806;SDS011;31507;51.494;7.518;2023-05-10T00:31:11;11.73;;;7.30;;
45806;SDS011;31507;51.494;7.518;2023-05-10T00:33:36;12.13;;;7.40;;
45806;SDS011;31507;51.494;7.518;2023-05-10T00:36:02;14.02;;;7.75;;
45806;SDS011;31507;51.494;7.518;2023-05-10T00:38:29;14.60;;;8.52;;
45806;SDS011;31507;51.494;7.518;2023-05-10T00:40:54;14.60;;;8.00;;
45806;SDS011;31507;51.494;7.518;2023-05-10T00:43:20;16.85;;;9.55;;
45806;SDS011;31507;51.494;7.518;2023-05-10T00:45:45;16.80;;;9.07;;
45806;SDS011;31507;51.494;7.518;2023-05-10T00:48:11;17.50;;;8.77;;
45806;SDS011;31507;51.494;7.518;2023-05-10T00:50:38;20.05;;;10.05;;
45806;SDS011;31507;51.494;7.518;2023-05-10T00:53:05;21.60;;;10.77;;
45806;SDS011;31507;51.494;7.518;2023-05-10T00:55:31;22.63;;;11.45;;
45806;SDS011;31507;51.494;7.518;2023-05-10T00:57:56;22.38;;;11.27;;
45806;SDS011;31507;51.494;7.518;2023-05-10T01:00:22;29.15;;;13.10;;
45806;SDS011;31507;51.494;7.518;2023-05-10T01:02:48;21.48;;;10.88;;
45806;SDS011;31507;51.494;7.518;2023-05-10T01:05:14;23.73;;;12.15;;
45806;SDS011;31507;51.494;7.518;2023-05-10T01:07:40;25.50;;;12.05;;
45806;SDS011;31507;51.494;7.518;2023-05-10T01:10:06;28.45;;;12.10;;
45806;SDS011;31507;51.494;7.518;2023-05-10T01:12:34;24.88;;;12.35;;
45806;SDS011;31507;51.494;7.518;2023-05-10T01:15:05;26.88;;;13.52;;
45806;SDS011;31507;51.494;7.518;2023-05-10T01:17:33;31.15;;;13.60;;
45806;SDS011;31507;51.494;7.518;2023-05-10T01:20:00;31.60;;;15.00;;
45806;SDS011;31507;51.494;7.518;2023-05-10T01:25:14;29.27;;;13.95;;
45806;SDS011;31507;51.494;7.518;2023-05-10T01:30:56;35.25;;;15.07;;
45806;SDS011;31507;51.494;7.518;2023-05-10T01:37:02;38.60;;;16.13;;
45806;SDS011;31507;51.494;7.518;2023-05-10T01:39:17;36.72;;;16.40;;
45806;SDS011;31507;51.494;7.518;2023-05-10T01:42:01;46.30;;;17.60;;
45806;SDS011;31507;51.494;7.518;2023-05-10T01:44:34;37.97;;;17.67;;
45806;SDS011;31507;51.494;7.518;2023-05-10T01:47:05;49.78;;;19.98;;
45806;SDS011;31507;51.494;7.518;2023-05-10T01:49:43;49.47;;;20.05;;
45806;SDS011;31507;51.494;7.518;2023-05-10T01:52:15;44.55;;;20.80;;
45806;SDS011;31507;51.494;7.518;2023-05-10T01:54:50;40.63;;;18.95;;
45806;SDS011;31507;51.494;7.518;2023-05-10T01:57:20;49.72;;;20.20;;
45806;SDS011;31507;51.494;7.518;2023-05-10T01:59:50;49.72;;;20.63;;
45806;SDS011;31507;51.494;7.518;2023-05-10T02:02:18;45.97;;;20.13;;
45806;SDS011;31507;51.494;7.518;2023-05-10T02:04:45;49.30;;;20.17;;
45806;SDS011;31507;51.494;7.518;2023-05-10T02:07:12;46.47;;;20.48;;
45806;SDS011;31507;51.494;7.518;2023-05-10T02:09:39;45.05;;;19.15;;
45806;SDS011;31507;51.494;7.518;2023-05-10T02:12:07;42.13;;;18.15;;
45806;SDS011;31507;51.494;7.518;2023-05-10T02:14:35;41.90;;;17.77;;
45806;SDS011;31507;51.494;7.518;2023-05-10T02:17:02;41.58;;;18.05;;
45806;SDS011;31507;51.494;7.518;2023-05-10T02:19:30;41.92;;;18.38;;
45806;SDS011;31507;51.494;7.518;2023-05-10T02:21:57;38.85;;;17.35;;
45806;SDS011;31507;51.494;7.518;2023-05-10T02:24:25;38.92;;;17.17;;
45806;SDS011;31507;51.494;7.518;2023-05-10T02:26:53;47.53;;;17.95;;
45806;SDS011;31507;51.494;7.518;2023-05-10T02:29:20;40.78;;;18.05;;
45806;SDS011;31507;51.494;7.518;2023-05-10T02:31:49;37.90;;;17.25;;
45806;SDS011;31507;51.494;7.518;2023-05-10T02:34:19;43.40;;;18.02;;
45806;SDS011;31507;51.494;7.518;2023-05-10T02:36:46;40.83;;;16.98;;
45806;SDS011;31507;51.494;7.518;2023-05-10T02:39:12;33.92;;;15.45;;
45806;SDS011;31507;51.494;7.518;2023-05-10T02:41:40;27.00;;;12.93;;
45806;SDS011;31507;51.494;7.518;2023-05-10T02:44:08;28.73;;;12.63;;
45806;SDS011;31507;51.494;7.518;2023-05-10T02:46:35;20.08;;;10.23;;
45806;SDS011;31507;51.494;7.518;2023-05-10T02:49:02;21.42;;;10.57;;
45806;SDS011;31507;51.494;7.518;2023-05-10T02:51:30;18.77;;;9.00;;
45806;SDS011;31507;51.494;7.518;2023-05-10T02:53:57;19.85;;;8.25;;
45806;SDS011;31507;51.494;7.518;2023-05-10T02:56:31;18.50;;;6.80;;
45806;SDS011;31507;51.494;7.518;2023-05-10T02:58:59;14.88;;;7.68;;
45806;SDS011;31507;51.494;7.518;2023-05-10T03:01:25;12.18;;;6.50;;
45806;SDS011;31507;51.494;7.518;2023-05-10T03:03:50;13.98;;;6.82;;
45806;SDS011;31507;51.494;7.518;2023-05-10T03:06:17;13.45;;;6.63;;
45806;SDS011;31507;51.494;7.518;2023-05-10T03:08:43;15.32;;;6.10;;
45806;SDS011;31507;51.494;7.518;2023-05-10T03:13:44;11.48;;;6.30;;
45806;SDS011;31507;51.494;7.518;2023-05-10T03:16:25;17.70;;;7.05;;
45806;SDS011;31507;51.494;7.518;2023-05-10T03:18:54;12.93;;;6.43;;
45806;SDS011;31507;51.494;7.518;2023-05-10T03:21:27;15.43;;;6.88;;
45806;SDS011;31507;51.494;7.518;2023-05-10T03:23:58;14.80;;;7.63;;
45806;SDS011;31507;51.494;7.518;2023-05-10T03:26:30;18.13;;;7.97;;
45806;SDS011;31507;51.494;7.518;2023-05-10T03:28:57;19.83;;;8.15;;
45806;SDS011;31507;51.494;7.518;2023-05-10T03:31:24;19.15;;;8.55;;
45806;SDS011;31507;51.494;7.518;2023-05-10T03:33:51;18.15;;;8.27;;
45806;SDS011;31507;51.494;7.518;2023-05-10T03:36:17;18.20;;;8.23;;
45806;SDS011;31507;51.494;7.518;2023-05-10T03:38:45;18.70;;;7.53;;
45806;SDS011;31507;51.494;7.518;2023-05-10T03:41:10;13.57;;;7.20;;
45806;SDS011;31507;51.494;7.518;2023-05-10T03:43:36;14.13;;;6.97;;
45806;SDS011;31507;51.494;7.518;2023-05-10T03:46:03;19.05;;;7.35;;
45806;SDS011;31507;51.494;7.518;2023-05-10T03:48:30;11.02;;;6.57;;
45806;SDS011;31507;51.494;7.518;2023-05-10T03:50:56;18.67;;;7.20;;
45806;SDS011;31507;51.494;7.518;2023-05-10T03:53:22;15.93;;;7.65;;
45806;SDS011;31507;51.494;7.518;2023-05-10T03:55:48;21.23;;;7.97;;
45806;SDS011;31507;51.494;7.518;2023-05-10T03:58:13;19.20;;;9.07;;
45806;SDS011;31507;51.494;7.518;2023-05-10T04:00:39;22.02;;;10.30;;
45806;SDS011;31507;51.494;7.518;2023-05-10T04:03:09;35.28;;;12.25;;
45806;SDS011;31507;51.494;7.518;2023-05-10T04:05:35;37.75;;;15.27;;
45806;SDS011;31507;51.494;7.518;2023-05-10T04:08:01;48.63;;;19.98;;
45806;SDS011;31507;51.494;7.518;2023-05-10T04:10:28;64.97;;;24.30;;
45806;SDS011;31507;51.494;7.518;2023-05-10T04:12:55;74.93;;;24.00;;
45806;SDS011;31507;51.494;7.518;2023-05-10T04:15:20;73.82;;;27.52;;
45806;SDS011;31507;51.494;7.518;2023-05-10T04:17:46;75.68;;;29.02;;
45806;SDS011;31507;51.494;7.518;2023-05-10T04:20:12;82.72;;;30.40;;
45806;SDS011;31507;51.494;7.518;2023-05-10T04:22:38;77.85;;;31.02;;
45806;SDS011;31507;51.494;7.518;2023-05-10T04:25:04;89.82;;;33.40;;
45806;SDS011;31507;51.494;7.518;2023-05-10T04:27:30;91.10;;;32.88;;
45806;SDS011;31507;51.494;7.518;2023-05-10T04:29:56;84.68;;;31.33;;
45806;SDS011;31507;51.494;7.518;2023-05-10T04:32:22;90.72;;;31.67;;
45806;SDS011;31507;51.494;7.518;2023-05-10T04:34:48;77.43;;;30.27;;
45806;SDS011;31507;51.494;7.518;2023-05-10T04:37:13;86.53;;;30.27;;
45806;SDS011;31507;51.494;7.518;2023-05-10T04:39:39;79.95;;;30.63;;
45806;SDS011;31507;51.494;7.518;2023-05-10T04:42:05;90.32;;;31.20;;
45806;SDS011;31507;51.494;7.518;2023-05-10T04:44:31;79.75;;;30.58;;
45806;SDS011;31507;51.494;7.518;2023-05-10T04:46:57;67.45;;;27.58;;
45806;SDS011;31507;51.494;7.518;2023-05-10T04:49:22;73.25;;;27.95;;
45806;SDS011;31507;51.494;7.518;2023-05-10T04:51:48;71.93;;;27.60;;
45806;SDS011;31507;51.494;7.518;2023-05-10T04:54:14;71.90;;;28.85;;
45806;SDS011;31507;51.494;7.518;2023-05-10T04:56:40;74.38;;;29.63;;
45806;SDS011;31507;51.494;7.518;2023-05-10T04:59:05;72.60;;;29.52;;
45806;SDS011;31507;51.494;7.518;2023-05-10T05:01:31;84.82;;;31.15;;
45806;SDS011;31507;51.494;7.518;2023-05-10T05:03:57;72.10;;;30.00;;
45806;SDS011;31507;51.494;7.518;2023-05-10T05:06:23;78.70;;;30.52;;
45806;SDS011;31507;51.494;7.518;2023-05-10T05:08:50;75.30;;;31.58;;
45806;SDS011;31507;51.494;7.518;2023-05-10T05:11:16;81.32;;;31.33;;
45806;SDS011;31507;51.494;7.518;2023-05-10T05:13:42;80.40;;;32.03;;
45806;SDS011;31507;51.494;7.518;2023-05-10T05:16:08;76.78;;;31.50;;
45806;SDS011;31507;51.494;7.518;2023-05-10T05:18:35;82.03;;;31.77;;
45806;SDS011;31507;51.494;7.518;2023-05-10T05:21:01;86.97;;;34.30;;
45806;SDS011;31507;51.494;7.518;2023-05-10T05:23:27;82.20;;;32.38;;
45806;SDS011;31507;51.494;7.518;2023-05-10T05:25:52;89.47;;;34.38;;
45806;SDS011;31507;51.494;7.518;2023-05-10T05:28:21;88.95;;;34.95;;
45806;SDS011;31507;51.494;7.518;2023-05-10T05:30:47;92.57;;;35.00;;
45806;SDS011;31507;51.494;7.518;2023-05-10T05:33:15;95.53;;;36.30;;
45806;SDS011;31507;51.494;7.518;2023-05-10T05:35:41;92.75;;;36.75;;
45806;SDS011;31507;51.494;7.518;2023-05-10T05:38:12;103.53;;;38.03;;
45806;SDS011;31507;51.494;7.518;2023-05-10T05:40:38;99.30;;;36.90;;
45806;SDS011;31507;51.494;7.518;2023-05-10T05:43:03;107.72;;;39.42;;
45806;SDS011;31507;51.494;7.518;2023-05-10T05:45:29;98.55;;;38.28;;
45806;SDS011;31507;51.494;7.518;2023-05-10T05:47:54;103.00;;;39.65;;
45806;SDS011;31507;51.494;7.518;2023-05-10T05:50:20;110.72;;;40.17;;
45806;SDS011;31507;51.494;7.518;2023-05-10T05:52:46;120.35;;;40.33;;
45806;SDS011;31507;51.494;7.518;2023-05-10T05:55:12;120.68;;;44.00;;
45806;SDS011;31507;51.494;7.518;2023-05-10T05:57:39;123.93;;;43.15;;
45806;SDS011;31507;51.494;7.518;2023-05-10T06:00:05;140.68;;;47.80;;
45806;SDS011;31507;51.494;7.518;2023-05-10T06:02:32;125.60;;;44.50;;
45806;SDS011;31507;51.494;7.518;2023-05-10T06:04:58;123.15;;;44.67;;
45806;SDS011;31507;51.494;7.518;2023-05-10T06:07:24;131.02;;;46.55;;
45806;SDS011;31507;51.494;7.518;2023-05-10T06:09:50;114.70;;;42.63;;
45806;SDS011;31507;51.494;7.518;2023-05-10T06:12:15;137.38;;;46.22;;
45806;SDS011;31507;51.494;7.518;2023-05-10T06:14:41;123.35;;;45.17;;
45806;SDS011;31507;51.494;7.518;2023-05-10T06:17:07;131.88;;;47.97;;
45806;SDS011;31507;51.494;7.518;2023-05-10T06:22:23;129.45;;;46.95;;
45806;SDS011;31507;51.494;7.518;2023-05-10T06:24:49;132.95;;;47.22;;
45806;SDS011;31507;51.494;7.518;2023-05-10T06:27:14;123.78;;;47.42;;
45806;SDS011;31507;51.494;7.518;2023-05-10T06:29:40;111.00;;;45.17;;
45806;SDS011;31507;51.494;7.518;2023-05-10T06:32:06;121.45;;;45.45;;
45806;SDS011;31507;51.494;7.518;2023-05-10T06:34:32;107.43;;;43.45;;
45806;SDS011;31507;51.494;7.518;2023-05-10T06:36:58;107.18;;;45.13;;
45806;SDS011;31507;51.494;7.518;2023-05-10T06:39:23;101.90;;;42.10;;
45806;SDS011;31507;51.494;7.518;2023-05-10T06:41:49;100.72;;;43.45;;
45806;SDS011;31507;51.494;7.518;2023-05-10T06:44:15;101.18;;;42.22;;
45806;SDS011;31507;51.494;7.518;2023-05-10T06:46:41;99.60;;;42.45;;
45806;SDS011;31507;51.494;7.518;2023-05-10T06:49:12;97.90;;;41.88;;
45806;SDS011;31507;51.494;7.518;2023-05-10T06:51:37;94.07;;;42.58;;
45806;SDS011;31507;51.494;7.518;2023-05-10T06:54:06;96.68;;;42.50;;
45806;SDS011;31507;51.494;7.518;2023-05-10T06:56:32;97.75;;;42.72;;
45806;SDS011;31507;51.494;7.518;2023-05-10T06:58:57;96.53;;;45.97;;
45806;SDS011;31507;51.494;7.518;2023-05-10T07:01:23;104.47;;;45.03;;
45806;SDS011;31507;51.494;7.518;2023-05-10T07:03:48;118.35;;;45.78;;
45806;SDS011;31507;51.494;7.518;2023-05-10T07:06:15;99.07;;;43.63;;
45806;SDS011;31507;51.494;7.518;2023-05-10T07:08:41;92.63;;;43.80;;
45806;SDS011;31507;51.494;7.518;2023-05-10T07:11:06;91.72;;;43.33;;
45806;SDS011;31507;51.494;7.518;2023-05-10T07:13:32;102.57;;;44.42;;
45806;SDS011;31507;51.494;7.518;2023-05-10T07:15:59;92.22;;;42.92;;
45806;SDS011;31507;51.494;7.518;2023-05-10T07:18:25;88.18;;;43.53;;
45806;SDS011;31507;51.494;7.518;2023-05-10T07:20:51;81.88;;;41.85;;
45806;SDS011;31507;51.494;7.518;2023-05-10T07:23:17;77.35;;;41.75;;
45806;SDS011;31507;51.494;7.518;2023-05-10T07:25:47;67.03;;;38.78;;
45806;SDS011;31507;51.494;7.518;2023-05-10T07:28:14;68.40;;;38.60;;
45806;SDS011;31507;51.494;7.518;2023-05-10T07:30:41;56.50;;;36.17;;
45806;SDS011;31507;51.494;7.518;2023-05-10T07:33:07;58.22;;;36.17;;
45806;SDS011;31507;51.494;7.518;2023-05-10T07:35:34;53.38;;;36.05;;
45806;SDS011;31507;51.494;7.518;2023-05-10T07:38:00;43.05;;;30.98;;
45806;SDS011;31507;51.494;7.518;2023-05-10T07:40:26;45.65;;;32.22;;
45806;SDS011;31507;51.494;7.518;2023-05-10T07:42:52;41.78;;;29.00;;
45806;SDS011;31507;51.494;7.518;2023-05-10T07:45:20;37.38;;;28.52;;
45806;SDS011;31507;51.494;7.518;2023-05-10T07:47:46;37.20;;;27.02;;
45806;SDS011;31507;51.494;7.518;2023-05-10T07:50:12;33.42;;;25.70;;
45806;SDS011;31507;51.494;7.518;2023-05-10T07:52:37;35.10;;;26.92;;
45806;SDS011;31507;51.494;7.518;2023-05-10T07:55:03;33.17;;;24.75;;
45806;SDS011;31507;51.494;7.518;2023-05-10T07:57:29;31.33;;;24.98;;
45806;SDS011;31507;51.494;7.518;2023-05-10T07:59:55;31.70;;;24.23;;
45806;SDS011;31507;51.494;7.518;2023-05-10T08:02:21;33.08;;;23.63;;
45806;SDS011;31507;51.494;7.518;2023-05-10T08:04:49;30.27;;;22.45;;
45806;SDS011;31507;51.494;7.518;2023-05-10T08:07:15;30.65;;;20.48;;
45806;SDS011;31507;51.494;7.518;2023-05-10T08:09:41;28.05;;;20.27;;
45806;SDS011;31507;51.494;7.518;2023-05-10T08:12:06;31.02;;;20.65;;
45806;SDS011;31507;51.494;7.518;2023-05-10T08:14:32;35.55;;;21.63;;
45806;SDS011;31507;51.494;7.518;2023-05-10T08:16:58;34.67;;;22.48;;
45806;SDS011;31507;51.494;7.518;2023-05-10T08:19:23;31.08;;;22.48;;
45806;SDS011;31507;51.494;7.518;2023-05-10T08:21:49;38.97;;;23.85;;
45806;SDS011;31507;51.494;7.518;2023-05-10T08:24:14;36.28;;;23.70;;
45806;SDS011;31507;51.494;7.518;2023-05-10T08:26:40;34.25;;;23.13;;
45806;SDS011;31507;51.494;7.518;2023-05-10T08:29:06;32.75;;;22.58;;
45806;SDS011;31507;51.494;7.518;2023-05-10T08:31:32;29.80;;;22.33;;
45806;SDS011;31507;51.494;7.518;2023-05-10T08:33:57;31.77;;;22.08;;
45806;SDS011;31507;51.494;7.518;2023-05-10T08:36:23;33.20;;;22.80;;
45806;SDS011;31507;51.494;7.518;2023-05-10T08:38:52;31.50;;;22.65;;
45806;SDS011;31507;51.494;7.518;2023-05-10T08:41:22;31.05;;;23.63;;
45806;SDS011;31507;51.494;7.518;2023-05-10T08:43:59;33.17;;;24.13;;
45806;SDS011;31507;51.494;7.518;2023-05-10T08:46:33;33.72;;;24.98;;
45806;SDS011;31507;51.494;7.518;2023-05-10T08:49:03;31.63;;;22.70;;
45806;SDS011;31507;51.494;7.518;2023-05-10T08:51:31;27.27;;;19.15;;
45806;SDS011;31507;51.494;7.518;2023-05-10T08:54:00;31.52;;;19.58;;
45806;SDS011;31507;51.494;7.518;2023-05-10T08:56:27;27.58;;;19.13;;
45806;SDS011;31507;51.494;7.518;2023-05-10T08:58:53;29.17;;;17.38;;
45806;SDS011;31507;51.494;7.518;2023-05-10T09:01:18;22.55;;;15.82;;
45806;SDS011;31507;51.494;7.518;2023-05-10T09:03:45;20.45;;;13.20;;
45806;SDS011;31507;51.494;7.518;2023-05-10T09:06:12;19.90;;;12.75;;
45806;SDS011;31507;51.494;7.518;2023-05-10T09:08:38;21.50;;;12.93;;
45806;SDS011;31507;51.494;7.518;2023-05-10T09:11:06;18.58;;;13.23;;
45806;SDS011;31507;51.494;7.518;2023-05-10T09:13:33;21.05;;;13.32;;
45806;SDS011;31507;51.494;7.518;2023-05-10T09:16:00;23.25;;;12.93;;
45806;SDS011;31507;51.494;7.518;2023-05-10T09:18:26;23.95;;;14.98;;
45806;SDS011;31507;51.494;7.518;2023-05-10T09:20:51;20.33;;;15.30;;
45806;SDS011;31507;51.494;7.518;2023-05-10T09:23:20;26.98;;;17.25;;
45806;SDS011;31507;51.494;7.518;2023-05-10T09:25:46;25.55;;;17.67;;
45806;SDS011;31507;51.494;7.518;2023-05-10T09:28:11;23.40;;;16.92;;
45806;SDS011;31507;51.494;7.518;2023-05-10T09:30:37;28.90;;;18.05;;
45806;SDS011;31507;51.494;7.518;2023-05-10T09:33:04;23.63;;;17.15;;
45806;SDS011;31507;51.494;7.518;2023-05-10T09:35:31;26.40;;;18.20;;
45806;SDS011;31507;51.494;7.518;2023-05-10T09:38:00;27.00;;;18.42;;
45806;SDS011;31507;51.494;7.518;2023-05-10T09:40:28;24.35;;;17.13;;
45806;SDS011;31507;51.494;7.518;2023-05-10T09:42:58;24.13;;;16.90;;
45806;SDS011;31507;51.494;7.518;2023-05-10T09:45:25;24.20;;;17.67;;
45806;SDS011;31507;51.494;7.518;2023-05-10T09:47:52;24.90;;;17.15;;
45806;SDS011;31507;51.494;7.518;2023-05-10T09:50:18;23.27;;;16.48;;
45806;SDS011;31507;51.494;7.518;2023-05-10T09:55:16;24.75;;;17.02;;
45806;SDS011;31507;51.494;7.518;2023-05-10T09:57:43;22.25;;;15.35;;
45806;SDS011;31507;51.494;7.518;2023-05-10T10:00:09;18.45;;;13.80;;
45806;SDS011;31507;51.494;7.518;2023-05-10T10:02:35;20.08;;;12.63;;
45806;SDS011;31507;51.494;7.518;2023-05-10T10:05:01;16.77;;;11.82;;
45806;SDS011;31507;51.494;7.518;2023-05-10T10:07:28;15.15;;;10.68;;
45806;SDS011;31507;51.494;7.518;2023-05-10T10:09:54;14.02;;;11.60;;
45806;SDS011;31507;51.494;7.518;2023-05-10T10:12:20;15.82;;;11.73;;
45806;SDS011;31507;51.494;7.518;2023-05-10T10:14:49;13.02;;;9.85;;
45806;SDS011;31507;51.494;7.518;2023-05-10T10:17:15;11.30;;;8.48;;
45806;SDS011;31507;51.494;7.518;2023-05-10T10:19:41;10.60;;;8.48;;
45806;SDS011;31507;51.494;7.518;2023-05-10T10:22:14;11.15;;;8.23;;
45806;SDS011;31507;51.494;7.518;2023-05-10T10:24:53;10.70;;;7.93;;
45806;SDS011;31507;51.494;7.518;2023-05-10T10:29:58;12.10;;;7.90;;
45806;SDS011;31507;51.494;7.518;2023-05-10T10:32:58;11.50;;;7.65;;
45806;SDS011;31507;51.494;7.518;2023-05-10T10:35:28;10.27;;;7.32;;
45806;SDS011;31507;51.494;7.518;2023-05-10T10:37:55;13.27;;;6.90;;
45806;SDS011;31507;51.494;7.518;2023-05-10T10:40:40;9.65;;;7.18;;
45806;SDS011;31507;51.494;7.518;2023-05-10T10:48:51;9.95;;;6.47;;
45806;SDS011;31507;51.494;7.518;2023-05-10T10:51:40;11.55;;;8.13;;
45806;SDS011;31507;51.494;7.518;2023-05-10T10:54:28;12.07;;;8.23;;
45806;SDS011;31507;51.494;7.518;2023-05-10T10:59:51;10.05;;;7.63;;
45806;SDS011;31507;51.494;7.518;2023-05-10T11:02:36;9.32;;;7.78;;
45806;SDS011;31507;51.494;7.518;2023-05-10T11:05:23;12.13;;;8.05;;
45806;SDS011;31507;51.494;7.518;2023-05-10T11:07:56;14.93;;;9.35;;
45806;SDS011;31507;51.494;7.518;2023-05-10T11:10:23;16.83;;;11.68;;
45806;SDS011;31507;51.494;7.518;2023-05-10T11:13:02;21.50;;;13.55;;
45806;SDS011;31507;51.494;7.518;2023-05-10T11:15:31;20.92;;;14.23;;
45806;SDS011;31507;51.494;7.518;2023-05-10T11:20:43;19.27;;;13.77;;
45806;SDS011;31507;51.494;7.518;2023-05-10T11:23:14;22.40;;;13.75;;
45806;SDS011;31507;51.494;7.518;2023-05-10T11:25:42;16.67;;;12.30;;
45806;SDS011;31507;51.494;7.518;2023-05-10T11:28:09;20.40;;;12.70;;
45806;SDS011;31507;51.494;7.518;2023-05-10T11:30:36;17.80;;;11.77;;
45806;SDS011;31507;51.494;7.518;2023-05-10T11:33:03;16.27;;;10.80;;
45806;SDS011;31507;51.494;7.518;2023-05-10T11:35:29;20.65;;;11.10;;
45806;SDS011;31507;51.494;7.518;2023-05-10T11:37:55;15.10;;;10.43;;
45806;SDS011;31507;51.494;7.518;2023-05-10T11:40:21;15.57;;;11.70;;
45806;SDS011;31507;51.494;7.518;2023-05-10T11:42:49;13.63;;;10.85;;
45806;SDS011;31507;51.494;7.518;2023-05-10T11:45:15;16.80;;;10.48;;
45806;SDS011;31507;51.494;7.518;2023-05-10T11:47:41;12.88;;;10.30;;
45806;SDS011;31507;51.494;7.518;2023-05-10T11:50:08;15.38;;;10.60;;
45806;SDS011;31507;51.494;7.518;2023-05-10T11:52:35;15.05;;;11.25;;
45806;SDS011;31507;51.494;7.518;2023-05-10T11:55:04;16.88;;;11.90;;
45806;SDS011;31507;51.494;7.518;2023-05-10T11:57:30;20.60;;;12.20;;
45806;SDS011;31507;51.494;7.518;2023-05-10T11:59:56;15.23;;;11.50;;
45806;SDS011;31507;51.494;7.518;2023-05-10T12:02:23;14.57;;;10.60;;
45806;SDS011;31507;51.494;7.518;2023-05-10T12:04:49;14.57;;;12.05;;
45806;SDS011;31507;51.494;7.518;2023-05-10T12:07:15;17.70;;;11.30;;
45806;SDS011;31507;51.494;7.518;2023-05-10T12:09:44;16.08;;;11.70;;
45806;SDS011;31507;51.494;7.518;2023-05-10T12:12:27;17.60;;;12.43;;
45806;SDS011;31507;51.494;7.518;2023-05-10T12:14:52;15.10;;;11.60;;
45806;SDS011;31507;51.494;7.518;2023-05-10T12:17:18;22.05;;;12.82;;
45806;SDS011;31507;51.494;7.518;2023-05-10T12:19:43;19.63;;;12.02;;
45806;SDS011;31507;51.494;7.518;2023-05-10T12:22:09;17.63;;;12.13;;
45806;SDS011;31507;51.494;7.518;2023-05-10T12:24:35;13.43;;;11.10;;
45806;SDS011;31507;51.494;7.518;2023-05-10T12:27:07;17.80;;;11.60;;
45806;SDS011;31507;51.494;7.518;2023-05-10T12:29:33;16.15;;;10.77;;
45806;SDS011;31507;51.494;7.518;2023-05-10T12:31:59;11.05;;;9.90;;
45806;SDS011;31507;51.494;7.518;2023-05-10T12:34:34;13.77;;;10.40;;
45806;SDS011;31507;51.494;7.518;2023-05-10T12:37:04;12.52;;;9.52;;
45806;SDS011;31507;51.494;7.518;2023-05-10T12:42:04;13.07;;;9.15;;
45806;SDS011;31507;51.494;7.518;2023-05-10T12:44:31;13.68;;;9.27;;
45806;SDS011;31507;51.494;7.518;2023-05-10T12:46:56;14.48;;;9.77;;
45806;SDS011;31507;51.494;7.518;2023-05-10T12:49:22;15.82;;;10.07;;
45806;SDS011;31507;51.494;7.518;2023-05-10T12:51:48;12.55;;;8.50;;
45806;SDS011;31507;51.494;7.518;2023-05-10T12:54:13;17.00;;;11.00;;
45806;SDS011;31507;51.494;7.518;2023-05-10T12:56:39;15.95;;;9.52;;
45806;SDS011;31507;51.494;7.518;2023-05-10T12:59:05;12.50;;;8.55;;
45806;SDS011;31507;51.494;7.518;2023-05-10T13:01:31;10.68;;;8.70;;
45806;SDS011;31507;51.494;7.518;2023-05-10T13:03:57;12.93;;;8.30;;
45806;SDS011;31507;51.494;7.518;2023-05-10T13:06:22;10.90;;;8.30;;
45806;SDS011;31507;51.494;7.518;2023-05-10T13:08:48;12.63;;;9.00;;
45806;SDS011;31507;51.494;7.518;2023-05-10T13:11:13;17.33;;;8.80;;
45806;SDS011;31507;51.494;7.518;2023-05-10T13:13:41;13.00;;;8.80;;
45806;SDS011;31507;51.494;7.518;2023-05-10T13:16:07;12.88;;;9.73;;
45806;SDS011;31507;51.494;7.518;2023-05-10T13:18:33;10.52;;;7.63;;
45806;SDS011;31507;51.494;7.518;2023-05-10T13:20:58;9.70;;;7.07;;
45806;SDS011;31507;51.494;7.518;2023-05-10T13:23:24;9.10;;;6.90;;
45806;SDS011;31507;51.494;7.518;2023-05-10T13:25:50;9.50;;;7.22;;
45806;SDS011;31507;51.494;7.518;2023-05-10T13:28:15;10.68;;;6.78;;
45806;SDS011;31507;51.494;7.518;2023-05-10T13:30:41;10.10;;;7.00;;
45806;SDS011;31507;51.494;7.518;2023-05-10T13:33:07;11.73;;;7.53;;
45806;SDS011;31507;51.494;7.518;2023-05-10T13:35:32;14.57;;;7.45;;
45806;SDS011;31507;51.494;7.518;2023-05-10T13:37:58;7.80;;;6.97;;
45806;SDS011;31507;51.494;7.518;2023-05-10T13:40:23;10.63;;;7.00;;
45806;SDS011;31507;51.494;7.518;2023-05-10T13:42:49;9.85;;;7.28;;
45806;SDS011;31507;51.494;7.518;2023-05-10T13:45:15;9.38;;;6.90;;
45806;SDS011;31507;51.494;7.518;2023-05-10T13:47:40;12.25;;;6.85;;
45806;SDS011;31507;51.494;7.518;2023-05-10T13:50:06;11.93;;;7.00;;
45806;SDS011;31507;51.494;7.518;2023-05-10T13:52:32;11.45;;;7.18;;
45806;SDS011;31507;51.494;7.518;2023-05-10T13:54:58;11.52;;;6.97;;
45806;SDS011;31507;51.494;7.518;2023-05-10T13:57:23;10.70;;;7.00;;
45806;SDS011;31507;51.494;7.518;2023-05-10T13:59:49;9.65;;;6.88;;
45806;SDS011;31507;51.494;7.518;2023-05-10T14:02:15;19.27;;;7.20;;
45806;SDS011;31507;51.494;7.518;2023-05-10T14:04:41;9.98;;;6.63;;
45806;SDS011;31507;51.494;7.518;2023-05-10T14:07:06;10.60;;;6.85;;
45806;SDS011;31507;51.494;7.518;2023-05-10T14:09:32;8.40;;;7.05;;
45806;SDS011;31507;51.494;7.518;2023-05-10T14:11:57;8.13;;;7.30;;
45806;SDS011;31507;51.494;7.518;2023-05-10T14:14:23;10.00;;;7.35;;
45806;SDS011;31507;51.494;7.518;2023-05-10T14:16:49;9.55;;;7.05;;
45806;SDS011;31507;51.494;7.518;2023-05-10T14:19:15;11.90;;;7.43;;
45806;SDS011;31507;51.494;7.518;2023-05-10T14:21:41;9.02;;;7.25;;
45806;SDS011;31507;51.494;7.518;2023-05-10T14:24:06;8.57;;;6.88;;
45806;SDS011;31507;51.494;7.518;2023-05-10T14:26:32;6.95;;;6.25;;
45806;SDS011;31507;51.494;7.518;2023-05-10T14:28:59;7.32;;;5.53;;
45806;SDS011;31507;51.494;7.518;2023-05-10T14:31:25;7.80;;;6.18;;
45806;SDS011;31507;51.494;7.518;2023-05-10T14:33:50;6.65;;;5.88;;
45806;SDS011;31507;51.494;7.518;2023-05-10T14:36:16;7.80;;;5.40;;
45806;SDS011;31507;51.494;7.518;2023-05-10T14:38:42;7.22;;;5.00;;
45806;SDS011;31507;51.494;7.518;2023-05-10T14:41:08;6.15;;;4.72;;
45806;SDS011;31507;51.494;7.518;2023-05-10T14:43:33;6.22;;;4.80;;
45806;SDS011;31507;51.494;7.518;2023-05-10T14:46:00;6.97;;;5.03;;
45806;SDS011;31507;51.494;7.518;2023-05-10T14:48:25;8.38;;;5.28;;
45806;SDS011;31507;51.494;7.518;2023-05-10T14:50:51;5.85;;;5.13;;
45806;SDS011;31507;51.494;7.518;2023-05-10T14:53:17;4.97;;;4.47;;
45806;SDS011;31507;51.494;7.518;2023-05-10T14:55:43;7.35;;;4.90;;
45806;SDS011;31507;51.494;7.518;2023-05-10T14:58:08;9.35;;;5.20;;
45806;SDS011;31507;51.494;7.518;2023-05-10T15:00:34;5.43;;;3.60;;